Time;durP1;ratioP1;P1;durP2;ratioP2;P2;SDS_P1;SDS_P2;PMS_P1;PMS_P2;Temp;Humidity;BMP_temperature;BMP_pressure;BME280_temperature;BME280_humidity;BME280_pressure;Samples;Min_cycle;Max_cycle;Signal;HPM_P1;HPM_P2
2022/12/12 00:00:39;;;;;;;3.35;3.15;;;;;;;-142.91;100.00;56616.03;5032624;28;20653;-65
2022/12/12 00:03:06;;;;;;;2.80;2.60;;;;;;;-142.91;100.00;56616.03;5032019;28;22073;-66
2022/12/12 00:05:33;;;;;;;3.22;3.13;;;;;;;-142.91;100.00;56616.03;5029817;28;20272;-64
2022/12/12 00:08:00;;;;;;;2.90;2.75;;;;;;;-142.91;100.00;56616.03;5028778;28;20206;-64
2022/12/12 00:10:28;;;;;;;3.42;3.22;;;;;;;-142.91;100.00;56616.03;5034099;28;20251;-64
2022/12/12 00:12:55;;;;;;;3.78;3.47;;;;;;;-142.91;100.00;56616.03;5032687;28;20207;-65
2022/12/12 00:15:22;;;;;;;3.38;3.08;;;;;;;-142.91;100.00;56616.03;5035873;28;21785;-64
2022/12/12 00:17:49;;;;;;;3.22;3.03;;;;;;;-142.91;100.00;56616.03;5038969;28;20699;-65
2022/12/12 00:20:15;;;;;;;3.20;3.00;;;;;;;-142.91;100.00;56616.03;5034270;28;20328;-65
2022/12/12 00:22:42;;;;;;;3.33;3.13;;;;;;;-142.91;100.00;56616.03;5032893;28;20642;-64
2022/12/12 00:25:09;;;;;;;3.47;3.28;;;;;;;-142.91;100.00;56616.03;5032053;28;20785;-64
2022/12/12 00:27:37;;;;;;;2.80;2.70;;;;;;;-142.91;100.00;56616.03;5030904;28;20220;-65
2022/12/12 00:30:06;;;;;;;3.92;3.63;;;;;;;-142.91;100.00;56616.03;5032662;28;20214;-63
2022/12/12 00:32:33;;;;;;;4.25;3.95;;;;;;;-142.91;100.00;56616.03;5031533;28;20673;-63
2022/12/12 00:34:59;;;;;;;4.70;4.30;;;;;;;-142.91;100.00;56616.03;5031735;28;20211;-63
2022/12/12 00:37:26;;;;;;;3.90;3.60;;;;;;;-142.91;100.00;56616.03;5031292;28;20214;-64
2022/12/12 00:39:53;;;;;;;3.03;2.85;;;;;;;-142.91;100.00;56616.03;5032616;28;20206;-64
2022/12/12 00:42:20;;;;;;;2.53;2.42;;;;;;;-142.91;100.00;56616.03;5031126;28;20642;-63
2022/12/12 00:44:48;;;;;;;3.33;3.13;;;;;;;-142.91;100.00;56616.03;5032662;28;20696;-64
2022/12/12 00:47:15;;;;;;;3.22;3.05;;;;;;;-142.91;100.00;56616.03;5031849;28;20226;-64
2022/12/12 00:49:41;;;;;;;3.20;3.00;;;;;;;-142.91;100.00;56616.03;5030690;28;20210;-64
2022/12/12 00:52:08;;;;;;;3.65;3.40;;;;;;;-142.91;100.00;56616.03;5031420;28;20202;-64
2022/12/12 00:54:35;;;;;;;3.47;3.17;;;;;;;-142.91;100.00;56616.03;5032577;28;20500;-64
2022/12/12 00:57:02;;;;;;;3.47;3.28;;;;;;;-142.91;100.00;56616.03;5031490;28;20260;-65
2022/12/12 00:59:28;;;;;;;4.10;3.70;;;;;;;-142.91;100.00;56616.03;5030018;28;20806;-64
2022/12/12 01:01:56;;;;;;;3.85;3.55;;;;;;;-142.91;100.00;56616.03;5032005;28;20766;-64
2022/12/12 01:04:23;;;;;;;3.92;3.63;;;;;;;-142.91;100.00;56616.03;5030717;28;20715;-63
2022/12/12 01:06:50;;;;;;;4.43;4.13;;;;;;;-142.91;100.00;56616.03;5030329;28;20716;-64
2022/12/12 01:09:17;;;;;;;4.88;4.47;;;;;;;-142.91;100.00;56616.03;5029960;28;20961;-64
2022/12/12 01:11:43;;;;;;;4.45;3.88;;;;;;;-142.91;100.00;56616.03;5030604;28;20210;-64
2022/12/12 01:14:10;;;;;;;4.70;4.30;;;;;;;-142.91;100.00;56616.03;5030756;28;20699;-65
2022/12/12 01:16:37;;;;;;;4.75;4.35;;;;;;;-142.91;100.00;56616.03;5032579;28;20638;-64
2022/12/12 01:19:05;;;;;;;4.82;4.43;;;;;;;-142.91;100.00;56616.03;5028705;28;20311;-63
2022/12/12 01:21:32;;;;;;;6.78;4.63;;;;;;;-142.91;100.00;56616.03;5030242;28;20279;-63
2022/12/12 01:24:00;;;;;;;4.85;4.38;;;;;;;-142.91;100.00;56616.03;5030955;28;20684;-63
2022/12/12 01:26:27;;;;;;;4.78;4.47;;;;;;;-142.91;100.00;56616.03;5030873;28;20226;-64
2022/12/12 01:28:54;;;;;;;5.50;5.15;;;;;;;-142.91;100.00;56616.03;5029560;28;20315;-64
2022/12/12 01:31:21;;;;;;;8.18;7.47;;;;;;;-142.91;100.00;56616.03;5029308;28;21032;-63
2022/12/12 01:33:48;;;;;;;6.78;6.28;;;;;;;-142.91;100.00;56616.03;5031238;28;20249;-64
2022/12/12 01:36:18;;;;;;;6.38;5.88;;;;;;;-142.91;100.00;56616.03;5030725;28;20214;-64
2022/12/12 01:38:46;;;;;;;6.18;5.68;;;;;;;-142.91;100.00;56616.03;5031003;28;20544;-64
2022/12/12 01:41:14;;;;;;;5.75;5.25;;;;;;;-142.91;100.00;56616.03;5030446;28;20687;-64
2022/12/12 01:43:41;;;;;;;6.05;5.60;;;;;;;-142.91;100.00;56616.03;5031228;28;20202;-64
2022/12/12 01:46:46;;;;;;;6.32;5.82;;;;;;;-142.91;100.00;56616.03;5030461;28;20734;-63
2022/12/12 01:49:17;;;;;;;5.90;5.40;;;;;;;-142.91;100.00;56616.03;5031966;28;20307;-64
2022/12/12 01:51:47;;;;;;;5.55;5.15;;;;;;;-142.91;100.00;56616.03;5029486;28;20238;-66
2022/12/12 01:54:17;;;;;;;4.68;4.38;;;;;;;-142.91;100.00;56616.03;5031380;28;20202;-65
2022/12/12 01:56:45;;;;;;;5.30;4.85;;;;;;;-142.91;100.00;56616.03;5034791;28;20206;-64
2022/12/12 01:59:15;;;;;;;5.20;4.80;;;;;;;-142.91;100.00;56616.03;5034960;28;20963;-64
2022/12/12 02:01:43;;;;;;;5.28;4.88;;;;;;;-142.91;100.00;56616.03;5034189;28;20213;-64
2022/12/12 02:04:10;;;;;;;5.80;5.40;;;;;;;-142.91;100.00;56616.03;5034683;28;20202;-64
2022/12/12 02:06:38;;;;;;;6.03;5.55;;;;;;;-142.91;100.00;56616.03;5033623;28;21459;-65
2022/12/12 02:09:10;;;;;;;5.35;4.95;;;;;;;-142.91;100.00;56616.03;5033589;28;20207;-64
2022/12/12 02:11:43;;;;;;;6.80;6.00;;;;;;;-142.91;100.00;56616.03;5033237;28;20597;-64
2022/12/12 02:14:12;;;;;;;5.75;5.43;;;;;;;-142.91;100.00;56616.03;5036282;28;20881;-65
2022/12/12 02:16:54;;;;;;;6.60;6.00;;;;;;;-142.91;100.00;56616.03;5038114;28;20218;-64
2022/12/12 02:19:54;;;;;;;6.68;6.18;;;;;;;-142.91;100.00;56616.03;5034712;28;20622;-65
2022/12/12 02:22:33;;;;;;;6.82;6.35;;;;;;;-142.91;100.00;56616.03;5034329;28;20206;-64
2022/12/12 02:25:31;;;;;;;6.28;5.75;;;;;;;-142.91;100.00;56616.03;5033969;28;20309;-66
2022/12/12 02:28:38;;;;;;;7.20;6.60;;;;;;;-142.91;100.00;56616.03;5034004;28;20202;-65
2022/12/12 02:31:14;;;;;;;6.15;5.75;;;;;;;-142.91;100.00;56616.03;5020844;28;20263;-64
2022/12/12 02:33:50;;;;;;;6.47;5.95;;;;;;;-142.91;100.00;56616.03;5034491;28;20307;-64
2022/12/12 02:36:26;;;;;;;6.15;5.75;;;;;;;-142.91;100.00;56616.03;5033678;28;20194;-64
2022/12/12 02:39:01;;;;;;;6.30;5.70;;;;;;;-142.91;100.00;56616.03;5034599;28;20266;-64
2022/12/12 02:41:34;;;;;;;6.70;6.20;;;;;;;-142.91;100.00;56616.03;5033550;28;20668;-64
2022/12/12 02:44:14;;;;;;;6.38;5.95;;;;;;;-142.91;100.00;56616.03;5034888;28;20264;-64
2022/12/12 02:46:48;;;;;;;5.70;5.30;;;;;;;-142.91;100.00;56616.03;5033271;28;20229;-63
2022/12/12 02:49:21;;;;;;;6.20;5.80;;;;;;;-142.91;100.00;56616.03;5033703;28;20272;-63
2022/12/12 02:51:49;;;;;;;6.03;5.57;;;;;;;-142.91;100.00;56616.03;5033145;28;20283;-64
2022/12/12 02:54:18;;;;;;;6.32;5.82;;;;;;;-142.91;100.00;56616.03;5033958;28;20202;-63
2022/12/12 02:56:48;;;;;;;6.20;5.80;;;;;;;-142.91;100.00;56616.03;5034020;28;20679;-64
2022/12/12 02:59:23;;;;;;;6.65;6.15;;;;;;;-142.91;100.00;56616.03;5033196;28;20234;-63
2022/12/12 03:02:21;;;;;;;6.07;5.68;;;;;;;-142.91;100.00;56616.03;5033851;28;20201;-64
2022/12/12 03:08:09;;;;;;;7.75;7.05;;;;;;;-142.91;100.00;56616.03;5032985;28;20648;-64
2022/12/12 03:10:47;;;;;;;7.45;6.75;;;;;;;-142.91;100.00;56616.03;5033669;28;20201;-64
2022/12/12 03:13:23;;;;;;;6.90;6.40;;;;;;;-142.91;100.00;56616.03;5032509;28;20632;-63
2022/12/12 03:16:08;;;;;;;6.40;5.90;;;;;;;-142.91;100.00;56616.03;5038751;28;20263;-64
2022/12/12 03:18:42;;;;;;;6.57;6.03;;;;;;;-142.91;100.00;56616.03;5032538;28;20217;-63
2022/12/12 03:21:16;;;;;;;7.35;6.78;;;;;;;-142.91;100.00;56616.03;5033215;28;20292;-63
2022/12/12 03:23:47;;;;;;;6.95;6.45;;;;;;;-142.91;100.00;56616.03;5034783;28;20501;-64
2022/12/12 03:26:18;;;;;;;5.88;5.47;;;;;;;-142.91;100.00;56616.03;5033561;28;20303;-64
2022/12/12 03:28:49;;;;;;;7.30;6.60;;;;;;;-142.91;100.00;56616.03;5034134;28;20198;-64
2022/12/12 03:31:19;;;;;;;6.85;6.10;;;;;;;-142.91;100.00;56616.03;5033947;28;20206;-65
2022/12/12 03:33:53;;;;;;;7.60;7.00;;;;;;;-142.91;100.00;56616.03;5031661;28;20234;-64
2022/12/12 03:36:24;;;;;;;7.72;7.05;;;;;;;-142.91;100.00;56616.03;5032986;28;20294;-65
2022/12/12 03:38:57;;;;;;;8.55;7.20;;;;;;;-142.91;100.00;56616.03;5032305;28;20218;-65
2022/12/12 03:41:30;;;;;;;7.15;6.55;;;;;;;-142.91;100.00;56616.03;5033089;28;20297;-64
2022/12/12 03:44:02;;;;;;;7.35;6.70;;;;;;;-142.91;100.00;56616.03;5033123;28;20375;-64
2022/12/12 03:46:35;;;;;;;7.20;6.53;;;;;;;-142.91;100.00;56616.03;5033024;28;20289;-63
2022/12/12 03:49:08;;;;;;;7.80;7.13;;;;;;;-142.91;100.00;56616.03;5033687;28;20229;-64
2022/12/12 03:51:39;;;;;;;7.63;7.03;;;;;;;-142.91;100.00;56616.03;5033141;28;20210;-63
2022/12/12 03:54:12;;;;;;;7.47;6.88;;;;;;;-142.91;100.00;56616.03;5031443;28;20784;-63
2022/12/12 03:56:45;;;;;;;7.10;6.50;;;;;;;-142.91;100.00;56616.03;5032337;28;20207;-64
2022/12/12 03:59:17;;;;;;;8.07;7.47;;;;;;;-142.91;100.00;56616.03;5032415;28;20260;-67
2022/12/12 04:01:48;;;;;;;7.93;7.32;;;;;;;-142.91;100.00;56616.03;5032375;28;20593;-64
2022/12/12 04:04:21;;;;;;;7.80;7.20;;;;;;;-142.91;100.00;56616.03;5031837;28;20225;-64
2022/12/12 04:06:52;;;;;;;7.22;6.57;;;;;;;-142.91;100.00;56616.03;5031310;28;20301;-65
2022/12/12 04:15:16;;;;;;;8.18;7.47;;;;;;;-142.91;100.00;56616.03;5036221;28;20229;-65
2022/12/12 04:17:53;;;;;;;8.25;7.55;;;;;;;-142.91;100.00;56616.03;5032556;28;20753;-65
2022/12/12 04:23:23;;;;;;;8.45;7.75;;;;;;;-142.91;100.00;56616.03;5032390;28;20229;-64
2022/12/12 04:29:01;;;;;;;7.78;7.18;;;;;;;-142.91;100.00;56616.03;5032381;28;20233;-63
2022/12/12 04:31:29;;;;;;;8.38;7.68;;;;;;;-142.91;100.00;56616.03;5032188;28;20264;-64
2022/12/12 04:34:01;;;;;;;8.30;7.70;;;;;;;-142.91;100.00;56616.03;5032477;28;20319;-64
2022/12/12 04:36:32;;;;;;;8.93;8.23;;;;;;;-142.91;100.00;56616.03;5033835;28;20252;-64
2022/12/12 04:39:01;;;;;;;9.63;8.60;;;;;;;-142.91;100.00;56616.03;5032309;28;20581;-64
2022/12/12 04:41:31;;;;;;;10.90;9.90;;;;;;;-142.91;100.00;56616.03;5032621;28;20209;-64
2022/12/12 04:44:00;;;;;;;9.90;8.98;;;;;;;-142.91;100.00;56616.03;5032380;28;20602;-64
2022/12/12 04:46:32;;;;;;;14.52;9.40;;;;;;;-142.91;100.00;56616.03;5031645;28;20237;-64
2022/12/12 04:49:02;;;;;;;9.95;8.68;;;;;;;-142.91;100.00;56616.03;5030895;28;20230;-64
2022/12/12 04:51:33;;;;;;;8.90;8.00;;;;;;;-142.91;100.00;56616.03;5031957;28;20234;-66
2022/12/12 04:54:05;;;;;;;8.80;8.05;;;;;;;-142.91;100.00;56616.03;5032109;28;20683;-65
2022/12/12 04:56:36;;;;;;;10.02;9.10;;;;;;;-142.91;100.00;56616.03;5031883;28;20783;-64
2022/12/12 04:59:04;;;;;;;12.25;10.20;;;;;;;-142.91;100.00;56616.03;5030939;28;20275;-64
2022/12/12 05:01:42;;;;;;;11.32;10.18;;;;;;;-142.91;100.00;56616.03;5031330;28;20206;-64
2022/12/12 05:04:14;;;;;;;11.45;10.25;;;;;;;-142.91;100.00;56616.03;5032141;28;20925;-64
2022/12/12 05:06:49;;;;;;;10.68;9.63;;;;;;;-142.91;100.00;56616.03;5032073;28;20267;-64
2022/12/12 05:09:17;;;;;;;11.13;10.13;;;;;;;-142.91;100.00;56616.03;5031346;28;20229;-63
2022/12/12 05:11:44;;;;;;;11.65;10.55;;;;;;;-142.91;100.00;56616.03;5032685;28;20202;-65
2022/12/12 05:14:14;;;;;;;16.48;12.85;;;;;;;-142.91;100.00;56616.03;5031895;28;23065;-65
2022/12/12 05:16:45;;;;;;;20.98;15.10;;;;;;;-142.91;100.00;56616.03;5035090;28;20293;-64
2022/12/12 05:19:12;;;;;;;19.00;13.07;;;;;;;-142.91;100.00;56616.03;5031078;28;20210;-63
2022/12/12 05:21:39;;;;;;;11.90;10.32;;;;;;;-142.91;100.00;56616.03;5031829;28;20341;-64
2022/12/12 05:24:07;;;;;;;11.63;10.25;;;;;;;-142.91;100.00;56616.03;5032342;28;20233;-63
2022/12/12 05:26:35;;;;;;;11.40;10.25;;;;;;;-142.91;100.00;56616.03;5031557;28;20226;-64
2022/12/12 05:29:03;;;;;;;12.48;10.48;;;;;;;-142.91;100.00;56616.03;5030638;28;20296;-64
2022/12/12 05:31:29;;;;;;;11.70;10.50;;;;;;;-142.91;100.00;56616.03;5032616;28;20301;-67
2022/12/12 05:33:56;;;;;;;16.58;13.07;;;;;;;-142.91;100.00;56616.03;5030550;28;20238;-64
2022/12/12 05:36:23;;;;;;;26.02;16.27;;;;;;;-142.91;100.00;56616.03;5030805;28;20210;-64
2022/12/12 05:38:50;;;;;;;15.73;12.65;;;;;;;-142.91;100.00;56616.03;5030656;28;20206;-63
2022/12/12 05:41:18;;;;;;;18.75;14.35;;;;;;;-142.91;100.00;56616.03;5031557;28;20244;-64
2022/12/12 05:43:44;;;;;;;13.57;11.85;;;;;;;-142.91;100.00;56616.03;5032383;28;20648;-64
2022/12/12 05:46:11;;;;;;;14.68;12.10;;;;;;;-142.91;100.00;56616.03;5030900;28;20658;-64
2022/12/12 05:48:38;;;;;;;17.85;13.40;;;;;;;-142.91;100.00;56616.03;5029054;28;20624;-64
2022/12/12 05:51:05;;;;;;;20.38;15.15;;;;;;;-142.91;100.00;56616.03;5031001;28;20210;-64
2022/12/12 05:53:32;;;;;;;17.80;14.63;;;;;;;-142.91;100.00;56616.03;5030436;28;20295;-63
2022/12/12 05:55:58;;;;;;;34.25;21.02;;;;;;;-142.91;100.00;56616.03;5030979;28;20395;-64
2022/12/12 05:58:27;;;;;;;23.88;18.52;;;;;;;-142.91;100.00;56616.03;5029805;28;20251;-64
2022/12/12 06:00:53;;;;;;;19.85;15.57;;;;;;;-142.91;100.00;56616.03;5030194;28;21005;-64
2022/12/12 06:03:20;;;;;;;21.15;14.50;;;;;;;-142.91;100.00;56616.03;5030812;28;20234;-64
2022/12/12 06:05:47;;;;;;;24.00;14.05;;;;;;;-142.91;100.00;56616.03;5030292;28;20829;-66
2022/12/12 06:08:14;;;;;;;16.08;14.35;;;;;;;-142.91;100.00;56616.03;5030535;28;20281;-65
2022/12/12 06:10:41;;;;;;;18.60;14.75;;;;;;;-142.91;100.00;56616.03;5031140;28;20205;-65
2022/12/12 06:13:08;;;;;;;20.15;15.38;;;;;;;-142.91;100.00;56616.03;5031422;28;20303;-65
2022/12/12 06:15:39;;;;;;;19.60;14.13;;;;;;;-142.91;100.00;56616.03;5038366;28;20203;-65
2022/12/12 06:18:06;;;;;;;21.95;16.02;;;;;;;-142.91;100.00;56616.03;5037621;28;20248;-64
2022/12/12 06:20:33;;;;;;;23.00;17.50;;;;;;;-142.91;100.00;56616.03;5030787;28;20216;-64
2022/12/12 06:23:00;;;;;;;27.17;20.10;;;;;;;-142.91;100.00;56616.03;5029603;28;20207;-64
2022/12/12 06:25:27;;;;;;;33.67;20.25;;;;;;;-142.91;100.00;56616.03;5030993;28;20202;-65
2022/12/12 06:27:53;;;;;;;27.63;21.15;;;;;;;-142.91;100.00;56616.03;5032988;28;20307;-65
2022/12/12 06:30:20;;;;;;;30.08;21.27;;;;;;;-142.91;100.00;56616.03;5033219;28;20756;-65
2022/12/12 06:32:48;;;;;;;29.70;22.23;;;;;;;-142.91;100.00;56616.03;5032099;28;20295;-66
2022/12/12 06:35:15;;;;;;;27.85;21.48;;;;;;;-142.91;100.00;56616.03;5029760;28;20626;-64
2022/12/12 06:37:42;;;;;;;26.48;19.88;;;;;;;-142.91;100.00;56616.03;5031132;28;20210;-66
2022/12/12 06:40:10;;;;;;;24.48;19.15;;;;;;;-142.91;100.00;56616.03;5030969;28;20202;-66
2022/12/12 06:42:37;;;;;;;22.77;17.50;;;;;;;-142.91;100.00;56616.03;5034979;28;20261;-65
2022/12/12 06:45:05;;;;;;;24.15;16.92;;;;;;;-142.91;100.00;56616.03;5036352;28;22060;-65
2022/12/12 06:47:31;;;;;;;23.92;17.52;;;;;;;-142.91;100.00;56616.03;5035215;28;20851;-66
2022/12/12 06:50:00;;;;;;;22.98;16.83;;;;;;;-142.91;100.00;56616.03;5035142;28;20210;-64
2022/12/12 06:52:26;;;;;;;21.52;15.60;;;;;;;-142.91;100.00;56616.03;5035948;28;20599;-65
2022/12/12 06:54:54;;;;;;;25.63;16.88;;;;;;;-142.91;100.00;56616.03;5033866;28;20218;-65
2022/12/12 06:57:21;;;;;;;23.35;16.20;;;;;;;-142.91;100.00;56616.03;5036355;28;20289;-66
2022/12/12 06:59:50;;;;;;;17.27;15.00;;;;;;;-142.91;100.00;56616.03;5034608;28;20206;-66
2022/12/12 07:02:17;;;;;;;19.80;15.32;;;;;;;-142.91;100.00;56616.03;5034755;28;20198;-65
2022/12/12 07:04:44;;;;;;;26.23;17.70;;;;;;;-142.91;100.00;56616.03;5033873;28;20302;-65
2022/12/12 07:07:12;;;;;;;37.58;21.38;;;;;;;-142.91;100.00;56616.03;5034474;28;20621;-65
2022/12/12 07:09:39;;;;;;;33.50;20.67;;;;;;;-142.91;100.00;56616.03;5035769;28;21159;-65
2022/12/12 07:12:06;;;;;;;30.38;18.00;;;;;;;-142.91;100.00;56616.03;5033810;28;20647;-65
2022/12/12 07:14:33;;;;;;;38.72;20.35;;;;;;;-142.91;100.00;56616.03;5033547;28;20198;-65
2022/12/12 07:16:59;;;;;;;30.40;17.88;;;;;;;-142.91;100.00;56616.03;5039430;28;20599;-65
2022/12/12 07:19:26;;;;;;;35.90;18.70;;;;;;;-142.91;100.00;56616.03;5036501;28;21981;-65
2022/12/12 07:21:53;;;;;;;31.58;18.38;;;;;;;-142.91;100.00;56616.03;5038026;28;20218;-65
2022/12/12 07:24:21;;;;;;;29.23;20.02;;;;;;;-142.91;100.00;56616.03;5038343;28;20284;-64
2022/12/12 07:26:48;;;;;;;33.08;20.95;;;;;;;-142.91;100.00;56616.03;5039070;28;20229;-65
2022/12/12 07:29:15;;;;;;;35.63;21.33;;;;;;;-142.91;100.00;56616.03;5034755;28;20210;-66
2022/12/12 07:31:42;;;;;;;40.75;23.98;;;;;;;-142.91;100.00;56616.03;5034011;28;20598;-65
2022/12/12 07:34:08;;;;;;;29.33;19.13;;;;;;;-142.91;100.00;56616.03;5035746;28;20344;-65
2022/12/12 07:36:35;;;;;;;26.17;17.25;;;;;;;-142.91;100.00;56616.03;5034286;28;20758;-65
2022/12/12 07:39:02;;;;;;;24.75;16.58;;;;;;;-142.91;100.00;56616.03;5033399;28;20296;-65
2022/12/12 07:41:30;;;;;;;21.13;15.52;;;;;;;-142.91;100.00;56616.03;5033892;28;20259;-64
2022/12/12 07:43:57;;;;;;;25.50;18.40;;;;;;;-142.91;100.00;56616.03;5034087;28;20201;-64
2022/12/12 07:46:25;;;;;;;23.42;17.00;;;;;;;-142.91;100.00;56616.03;5033046;28;20615;-64
2022/12/12 07:48:53;;;;;;;28.77;20.67;;;;;;;-142.91;100.00;56616.03;5033677;28;20252;-65
2022/12/12 07:51:20;;;;;;;25.10;18.83;;;;;;;-142.91;100.00;56616.03;5032615;28;20259;-64
2022/12/12 07:53:47;;;;;;;20.95;17.08;;;;;;;-142.91;100.00;56616.03;5032931;28;20210;-64
2022/12/12 07:56:16;;;;;;;23.33;17.55;;;;;;;-142.91;100.00;56616.03;5035622;28;20202;-64
2022/12/12 07:58:47;;;;;;;20.85;15.45;;;;;;;-142.91;100.00;56616.03;5034320;28;20206;-64
2022/12/12 08:01:16;;;;;;;20.35;15.88;;;;;;;-142.91;100.00;56616.03;5032542;28;20209;-63
2022/12/12 08:03:43;;;;;;;19.63;15.88;;;;;;;-142.91;100.00;56616.03;5032824;28;20230;-64
2022/12/12 08:06:10;;;;;;;23.13;16.67;;;;;;;-142.91;100.00;56616.03;5032732;28;20574;-65
2022/12/12 08:08:37;;;;;;;22.95;16.13;;;;;;;-142.91;100.00;56616.03;5034437;28;20203;-64
2022/12/12 08:11:08;;;;;;;22.25;17.45;;;;;;;-142.91;100.00;56616.03;5033287;28;20221;-64
2022/12/12 08:13:36;;;;;;;17.45;15.52;;;;;;;-142.91;100.00;56616.03;5033026;28;20222;-65
2022/12/12 08:16:06;;;;;;;21.50;17.20;;;;;;;-142.91;100.00;56616.03;5038690;28;20204;-66
2022/12/12 08:18:35;;;;;;;27.67;16.35;;;;;;;-142.91;100.00;56616.03;5039061;28;20304;-66
2022/12/12 08:21:02;;;;;;;21.40;17.40;;;;;;;-142.91;100.00;56616.03;5038792;28;20618;-66
2022/12/12 08:23:29;;;;;;;21.73;17.42;;;;;;;-142.91;100.00;56616.03;5038379;28;20285;-67
2022/12/12 08:25:55;;;;;;;19.75;15.90;;;;;;;-142.91;100.00;56616.03;5039187;28;20567;-67
2022/12/12 08:28:23;;;;;;;29.42;21.10;;;;;;;-142.91;100.00;56616.03;5033930;28;20751;-64
2022/12/12 08:30:50;;;;;;;29.60;19.63;;;;;;;-142.91;100.00;56616.03;5034014;28;20597;-65
2022/12/12 08:33:18;;;;;;;31.40;21.15;;;;;;;-142.91;100.00;56616.03;5035064;28;20329;-64
2022/12/12 08:35:45;;;;;;;31.50;21.48;;;;;;;-142.91;100.00;56616.03;5033278;28;22032;-65
2022/12/12 08:38:12;;;;;;;27.02;19.60;;;;;;;-142.91;100.00;56616.03;5033570;28;20210;-65
2022/12/12 08:40:40;;;;;;;22.80;18.13;;;;;;;-142.91;100.00;56616.03;5032266;28;20234;-65
2022/12/12 08:43:07;;;;;;;27.70;18.35;;;;;;;-142.91;100.00;56616.03;5033436;28;20214;-66
2022/12/12 08:45:34;;;;;;;22.60;18.40;;;;;;;-142.91;100.00;56616.03;5033034;28;20202;-66
2022/12/12 08:48:00;;;;;;;21.08;16.85;;;;;;;-142.91;100.00;56616.03;5032705;28;20315;-66
2022/12/12 08:50:29;;;;;;;22.23;17.33;;;;;;;-142.91;100.00;56616.03;5033464;28;20287;-65
2022/12/12 08:52:56;;;;;;;20.15;15.98;;;;;;;-142.91;100.00;56616.03;5032940;28;21188;-66
2022/12/12 08:55:22;;;;;;;18.50;15.10;;;;;;;-142.91;100.00;56616.03;5031057;28;20634;-64
2022/12/12 08:57:49;;;;;;;18.92;16.55;;;;;;;-142.91;100.00;56616.03;5032875;28;20210;-63
2022/12/12 09:00:17;;;;;;;19.48;16.10;;;;;;;-142.91;100.00;56616.03;5033064;28;20233;-65
2022/12/12 09:02:44;;;;;;;19.15;15.77;;;;;;;-142.91;100.00;56616.03;5034199;28;20202;-63
2022/12/12 09:05:11;;;;;;;20.38;16.70;;;;;;;-142.91;100.00;56616.03;5031401;28;20222;-66
2022/12/12 09:07:39;;;;;;;21.77;18.10;;;;;;;-142.91;100.00;56616.03;5032652;28;20230;-68
2022/12/12 09:10:07;;;;;;;25.20;18.27;;;;;;;-142.91;100.00;56616.03;5031591;28;20296;-66
2022/12/12 09:12:35;;;;;;;21.33;17.50;;;;;;;-142.91;100.00;56616.03;5034285;28;20390;-66
2022/12/12 09:15:02;;;;;;;22.48;16.85;;;;;;;-142.91;100.00;56616.03;5034040;28;20213;-65
2022/12/12 09:17:29;;;;;;;25.80;18.23;;;;;;;-142.91;100.00;56616.03;5036733;28;20264;-66
2022/12/12 09:19:55;;;;;;;26.80;18.98;;;;;;;-142.91;100.00;56616.03;5036641;28;20214;-67
2022/12/12 09:22:22;;;;;;;27.20;21.15;;;;;;;-142.91;100.00;56616.03;5035200;28;20702;-64
2022/12/12 09:24:50;;;;;;;30.60;21.42;;;;;;;-142.91;100.00;56616.03;5035032;28;20210;-64
2022/12/12 09:27:17;;;;;;;32.33;24.20;;;;;;;-142.91;100.00;56616.03;5033210;28;20272;-65
2022/12/12 09:29:44;;;;;;;35.33;25.05;;;;;;;-142.91;100.00;56616.03;5032942;28;20198;-65
2022/12/12 09:32:11;;;;;;;34.15;24.70;;;;;;;-142.91;100.00;56616.03;5033392;28;20206;-66
2022/12/12 09:34:38;;;;;;;33.03;24.63;;;;;;;-142.91;100.00;56616.03;5032758;28;20230;-66
2022/12/12 09:37:05;;;;;;;37.13;25.35;;;;;;;-142.91;100.00;56616.03;5033177;28;20237;-65
2022/12/12 09:39:32;;;;;;;32.95;23.35;;;;;;;-142.91;100.00;56616.03;5031304;28;20917;-65
2022/12/12 09:42:09;;;;;;;28.52;22.52;;;;;;;-142.91;100.00;56616.03;5030822;28;20255;-65
2022/12/12 09:44:37;;;;;;;25.73;19.95;;;;;;;-142.91;100.00;56616.03;5033520;28;20250;-65
2022/12/12 09:47:12;;;;;;;27.73;21.05;;;;;;;-142.91;100.00;56616.03;5031472;28;21364;-63
2022/12/12 09:49:46;;;;;;;35.90;25.25;;;;;;;-142.91;100.00;56616.03;5031987;28;20252;-64
2022/12/12 09:52:15;;;;;;;48.90;32.17;;;;;;;-142.91;100.00;56616.03;5031830;28;20244;-64
2022/12/12 09:54:43;;;;;;;46.92;31.42;;;;;;;-142.91;100.00;56616.03;5029362;28;20234;-64
2022/12/12 09:57:24;;;;;;;44.38;28.25;;;;;;;-142.91;100.00;56616.03;5031190;28;20599;-65
2022/12/12 09:59:58;;;;;;;42.58;27.88;;;;;;;-142.91;100.00;56616.03;5031673;28;20202;-66
2022/12/12 10:02:40;;;;;;;51.92;31.98;;;;;;;-142.91;100.00;56616.03;5030914;28;20264;-65
2022/12/12 10:05:20;;;;;;;44.92;31.50;;;;;;;-142.91;100.00;56616.03;5036282;28;20337;-66
2022/12/12 10:07:55;;;;;;;40.85;28.15;;;;;;;-142.91;100.00;56616.03;5032229;28;20230;-65
2022/12/12 10:10:25;;;;;;;40.67;27.45;;;;;;;-142.91;100.00;56616.03;5032870;28;20255;-64
2022/12/12 10:12:57;;;;;;;38.97;27.27;;;;;;;-142.91;100.00;56616.03;5032330;28;20199;-65
2022/12/12 10:15:30;;;;;;;40.65;25.98;;;;;;;-142.91;100.00;56616.03;5035872;28;20325;-65
2022/12/12 10:18:01;;;;;;;30.05;24.23;;;;;;;-142.91;100.00;56616.03;5038939;28;20194;-66
2022/12/12 10:20:29;;;;;;;28.17;21.42;;;;;;;-142.91;100.00;56616.03;5042820;28;20217;-66
2022/12/12 10:23:01;;;;;;;29.42;22.02;;;;;;;-142.91;100.00;56616.03;5041856;28;20573;-66
2022/12/12 10:25:38;;;;;;;32.30;22.42;;;;;;;-142.91;100.00;56616.03;5040300;28;20202;-66
2022/12/12 10:28:10;;;;;;;29.48;22.63;;;;;;;-142.91;100.00;56616.03;5036798;28;20792;-69
2022/12/12 10:30:51;;;;;;;30.83;23.30;;;;;;;-142.91;100.00;56616.03;5035342;28;20213;-66
2022/12/12 10:33:29;;;;;;;26.60;20.38;;;;;;;-142.91;100.00;56616.03;5039416;28;20238;-66
2022/12/12 10:36:03;;;;;;;33.20;21.17;;;;;;;-142.91;100.00;56616.03;5031545;28;20722;-66
2022/12/12 10:38:48;;;;;;;33.83;21.73;;;;;;;-142.91;100.00;56616.03;5034760;28;20729;-66
2022/12/12 10:41:27;;;;;;;30.48;21.70;;;;;;;-142.91;100.00;56616.03;5039670;28;20206;-65
2022/12/12 10:44:03;;;;;;;32.75;22.15;;;;;;;-142.91;100.00;56616.03;5040763;28;20328;-66
2022/12/12 10:46:36;;;;;;;32.70;21.35;;;;;;;-142.91;100.00;56616.03;5034526;28;20210;-65
2022/12/12 10:49:13;;;;;;;36.58;23.33;;;;;;;-142.91;100.00;56616.03;5040343;28;20226;-66
2022/12/12 10:51:42;;;;;;;38.20;24.27;;;;;;;-142.91;100.00;56616.03;5041621;28;20293;-66
2022/12/12 10:54:17;;;;;;;38.85;23.40;;;;;;;-142.91;100.00;56616.03;5033179;28;22003;-67
2022/12/12 10:57:07;;;;;;;33.42;23.35;;;;;;;-142.91;100.00;56616.03;5032391;28;20263;-64
2022/12/12 10:59:47;;;;;;;36.55;25.23;;;;;;;-142.91;100.00;56616.03;5025579;28;20699;-64
2022/12/12 11:02:38;;;;;;;40.75;24.95;;;;;;;-142.91;100.00;56616.03;5031248;28;20695;-66
2022/12/12 11:05:16;;;;;;;38.75;27.65;;;;;;;-142.91;100.00;56616.03;5033994;28;20210;-66
2022/12/12 11:07:46;;;;;;;35.25;24.33;;;;;;;-142.91;100.00;56616.03;5033320;28;20249;-66
2022/12/12 11:10:25;;;;;;;39.90;27.27;;;;;;;-142.91;100.00;56616.03;5033123;28;20206;-64
2022/12/12 11:12:57;;;;;;;43.00;27.95;;;;;;;-142.91;100.00;56616.03;5038539;28;20202;-64
2022/12/12 11:15:30;;;;;;;43.33;26.67;;;;;;;-142.91;100.00;56616.03;5039504;28;21128;-64
2022/12/12 11:17:58;;;;;;;39.05;25.80;;;;;;;-142.91;100.00;56616.03;5038312;28;20203;-66
2022/12/12 11:20:26;;;;;;;36.08;24.83;;;;;;;-142.91;100.00;56616.03;5035970;28;20703;-65
2022/12/12 11:22:55;;;;;;;40.72;26.30;;;;;;;-142.91;100.00;56616.03;5036816;28;20210;-66
2022/12/12 11:25:28;;;;;;;44.78;28.65;;;;;;;-142.91;100.00;56616.03;5036224;28;20604;-65
2022/12/12 11:27:57;;;;;;;37.42;26.63;;;;;;;-142.91;100.00;56616.03;5031971;28;20249;-64